ABQ weather

Albuquerque International Sunport Airport
Albuquerque, New Mexico, United States

Public forecast

Using degrees Fahrenheit for public forecast. Weather courtesy of forecast.io.

METAR (pilot weather report)

Retrieved 2017/10/21 11:52 UTC (1 hour ago):

KABQ 211152Z 25008KT 10SM SCT080 OVC190 14/01 A2994 RMK AO2 SLP070 T01390011 10178 20133 53008

TAF (pilot weather forecast)

Forecast is more than 6 hours old.

Retrieved 2017/10/21 06:42 UTC (6 hours ago):

TAF KABQ 210541Z 2106/2206 19011KT P6SM FEW250 FM210900 22006KT P6SM SCT250 FM211500 29015G25KT P6SM SCT100 FM212000 31016G28KT P6SM FEW080 FM220300 34007KT P6SM SKC